Time;durP1;ratioP1;P1;durP2;ratioP2;P2;SDS_P1;SDS_P2;PMS_P1;PMS_P2;Temp;Humidity;BMP_temperature;BMP_pressure;BME280_temperature;BME280_humidity;BME280_pressure;Samples;Min_cycle;Max_cycle;Signal;HPM_P1;HPM_P2
2021/11/03 00:01:14;;;;;;;;;22.00;19.50;;;;;11.85;62.05;99308.16;4960333;28;45558;-63
2021/11/03 00:03:42;;;;;;;;;27.00;21.75;;;;;11.85;62.32;99311.63;4965993;28;45349;-61
2021/11/03 00:06:08;;;;;;;;;22.50;20.00;;;;;11.85;62.26;99316.06;4980041;28;45276;-61
2021/11/03 00:08:34;;;;;;;;;26.25;23.75;;;;;11.85;62.41;99305.53;4979752;28;45272;-61
2021/11/03 00:11:00;;;;;;;;;26.00;24.50;;;;;11.85;62.37;99308.16;4979681;28;45181;-61
2021/11/03 00:13:27;;;;;;;;;27.00;24.00;;;;;11.83;62.43;99302.94;4979889;28;45406;-61
2021/11/03 00:15:55;;;;;;;;;23.00;22.75;;;;;11.81;62.48;99296.03;4979863;28;45281;-61
2021/11/03 00:18:20;;;;;;;;;22.00;20.50;;;;;11.82;62.49;99293.34;4979654;28;46135;-63
2021/11/03 00:20:47;;;;;;;;;20.50;18.00;;;;;11.82;62.40;99292.47;4979640;28;45401;-63
2021/11/03 00:23:12;;;;;;;;;25.00;21.00;;;;;11.81;62.49;99286.38;4979962;28;45598;-62
2021/11/03 00:25:40;;;;;;;;;22.50;20.50;;;;;11.80;62.49;99287.28;5023394;28;45580;-61
2021/11/03 00:28:08;;;;;;;;;18.25;16.25;;;;;11.80;62.56;99283.81;4960119;28;47406;-61
2021/11/03 00:30:35;;;;;;;;;18.25;16.50;;;;;11.80;62.67;99289.06;4959994;28;45345;-61
2021/11/03 00:33:01;;;;;;;;;17.25;14.50;;;;;11.77;62.67;99271.59;4960307;28;45287;-62
2021/11/03 00:35:26;;;;;;;;;18.25;16.00;;;;;11.76;62.60;99269.03;4960016;28;45272;-62
2021/11/03 00:37:52;;;;;;;;;16.50;16.00;;;;;11.78;62.67;99275.13;4960243;28;45254;-62
2021/11/03 00:40:17;;;;;;;;;16.50;13.50;;;;;11.76;62.59;99275.19;4959412;28;46516;-62
2021/11/03 00:42:43;;;;;;;;;18.00;16.00;;;;;11.76;62.61;99277.81;4959523;28;45322;-62
2021/11/03 00:45:08;;;;;;;;;19.25;16.75;;;;;11.75;62.75;99275.22;4959962;28;45503;-63
2021/11/03 00:47:34;;;;;;;;;19.25;16.75;;;;;11.74;62.72;99282.28;4959953;28;45402;-62
2021/11/03 00:49:59;;;;;;;;;20.00;17.50;;;;;11.75;62.68;99283.13;4959941;28;45174;-62
2021/11/03 00:52:25;;;;;;;;;17.00;15.75;;;;;11.73;62.74;99277.09;4960389;28;45317;-62
2021/11/03 00:54:50;;;;;;;;;19.25;15.00;;;;;11.73;62.72;99274.44;4959797;28;45601;-62
2021/11/03 00:57:15;;;;;;;;;18.50;16.00;;;;;11.73;62.70;99266.56;4959693;28;46073;-62
2021/11/03 00:59:41;;;;;;;;;19.75;16.25;;;;;11.71;62.60;99262.22;4959692;28;45230;-62
2021/11/03 01:02:06;;;;;;;;;20.25;18.25;;;;;11.70;62.74;99255.22;4960050;28;45435;-62
2021/11/03 01:04:32;;;;;;;;;20.00;18.75;;;;;11.68;62.97;99245.69;4959781;28;45348;-62
2021/11/03 01:06:57;;;;;;;;;18.00;17.00;;;;;11.68;62.96;99257.09;4962755;28;47374;-62
2021/11/03 01:09:23;;;;;;;;;17.25;16.25;;;;;11.70;62.91;99246.50;4959681;28;45338;-62
2021/11/03 01:11:49;;;;;;;;;17.00;17.00;;;;;11.66;63.04;99237.00;4959704;28;45390;-63
2021/11/03 01:14:15;;;;;;;;;20.25;18.50;;;;;11.68;62.73;99248.31;4959545;28;45455;-63
2021/11/03 01:16:40;;;;;;;;;17.25;12.75;;;;;11.67;62.90;99247.47;4959545;28;46035;-62
2021/11/03 01:19:06;;;;;;;;;16.00;13.75;;;;;11.65;62.83;99244.03;4958307;28;45971;-62
2021/11/03 01:21:34;;;;;;;;;17.00;14.75;;;;;11.66;63.16;99247.53;4959984;28;45224;-62
2021/11/03 01:23:59;;;;;;;;;13.25;13.25;;;;;11.61;63.03;99245.09;4959523;28;45466;-62
2021/11/03 01:26:24;;;;;;;;;14.75;14.50;;;;;11.64;63.10;99250.22;5010765;28;45956;-62
2021/11/03 01:28:50;;;;;;;;;13.25;10.75;;;;;11.63;63.11;99256.41;4968989;28;45244;-62
2021/11/03 01:31:16;;;;;;;;;11.50;11.50;;;;;11.64;63.00;99257.28;4971069;28;45364;-62
2021/11/03 01:33:42;;;;;;;;;15.25;14.25;;;;;11.63;62.84;99258.19;4968523;28;45438;-62
2021/11/03 01:36:08;;;;;;;;;16.25;13.25;;;;;11.61;62.99;99250.38;4959296;28;45999;-62
2021/11/03 01:38:34;;;;;;;;;12.50;11.00;;;;;11.60;63.01;99247.81;4959360;28;45339;-62
2021/11/03 01:40:59;;;;;;;;;15.25;13.75;;;;;11.59;63.16;99254.84;4959379;28;45253;-62
2021/11/03 01:43:47;;;;;;;;;14.50;12.25;;;;;11.59;63.05;99257.47;4959353;28;45408;-62
2021/11/03 01:46:24;;;;;;;;;11.75;10.75;;;;;11.57;63.06;99247.91;4959242;28;46444;-62
2021/11/03 01:48:55;;;;;;;;;17.00;14.25;;;;;11.57;63.09;99246.13;4977122;28;45428;-62
2021/11/03 01:51:51;;;;;;;;;12.50;11.50;;;;;11.56;62.90;99249.72;4979009;28;45242;-62
2021/11/03 01:54:24;;;;;;;;;11.75;9.25;;;;;11.54;63.14;99251.53;4964319;28;45520;-62
2021/11/03 01:56:50;;;;;;;;;12.25;10.50;;;;;11.53;63.16;99258.59;4976883;28;47176;-62
2021/11/03 01:59:37;;;;;;;;;10.50;9.25;;;;;11.55;63.12;99261.16;4977083;28;45315;-62
2021/11/03 02:02:05;;;;;;;;;13.00;9.00;;;;;11.54;63.24;99251.53;4979095;28;45493;-62
2021/11/03 02:04:31;;;;;;;;;9.00;9.00;;;;;11.52;63.21;99256.00;4978629;28;45444;-62
2021/11/03 02:07:00;;;;;;;;;12.00;9.00;;;;;11.49;63.42;99253.50;4978400;28;45465;-61
2021/11/03 02:09:26;;;;;;;;;12.00;9.75;;;;;11.52;63.00;99245.47;4978585;28;45390;-61
2021/11/03 02:11:52;;;;;;;;;9.50;9.00;;;;;11.46;63.17;99243.09;4978286;28;45178;-62
2021/11/03 02:14:18;;;;;;;;;11.25;9.50;;;;;11.51;63.09;99246.41;4978447;28;45478;-64
2021/11/03 02:16:47;;;;;;;;;9.25;8.00;;;;;11.50;63.27;99245.53;4978418;28;46279;-62
2021/11/03 02:19:22;;;;;;;;;9.00;8.50;;;;;11.49;63.38;99238.56;4978426;28;45498;-62
2021/11/03 02:22:07;;;;;;;;;7.00;6.00;;;;;11.48;63.14;99230.75;4977199;28;45395;-62
2021/11/03 02:24:44;;;;;;;;;4.75;4.75;;;;;11.48;63.31;99236.00;4962993;28;45400;-62
2021/11/03 02:27:12;;;;;;;;;8.00;6.00;;;;;11.48;63.20;99239.50;4995524;27;45467;-64
2021/11/03 02:29:38;;;;;;;;;8.50;7.00;;;;;11.47;63.32;99234.28;4958942;28;45204;-62
2021/11/03 02:32:37;;;;;;;;;9.75;7.25;;;;;11.46;63.25;99238.72;4958730;28;45305;-62
2021/11/03 02:35:03;;;;;;;;;6.75;6.75;;;;;11.40;63.35;99228.44;4939814;28;45419;-62
2021/11/03 02:37:29;;;;;;;;;7.75;7.00;;;;;11.43;63.75;99235.34;4957239;28;46109;-61
2021/11/03 02:40:19;;;;;;;;;8.00;7.00;;;;;11.41;63.48;99238.06;4958812;28;45275;-62
2021/11/03 02:42:50;;;;;;;;;7.25;6.75;;;;;11.38;63.45;99241.66;4963023;28;45193;-61
2021/11/03 02:45:40;;;;;;;;;5.00;4.50;;;;;11.38;63.38;99248.69;4961191;28;45391;-62
2021/11/03 02:48:06;;;;;;;;;9.00;6.50;;;;;11.37;63.50;99244.34;4965834;28;46359;-62
2021/11/03 02:50:31;;;;;;;;;5.75;5.75;;;;;11.35;63.49;99243.56;4958366;28;45432;-62
2021/11/03 02:52:57;;;;;;;;;4.75;4.00;;;;;11.35;63.39;99247.03;4958939;28;45226;-62
2021/11/03 02:55:23;;;;;;;;;5.00;4.75;;;;;11.32;63.39;99247.19;4958452;28;45363;-62
2021/11/03 02:57:48;;;;;;;;;5.25;5.25;;;;;11.34;63.46;99252.38;4958388;28;45325;-62
2021/11/03 03:00:19;;;;;;;;;4.25;4.25;;;;;11.33;63.43;99248.91;4958175;28;45256;-61
2021/11/03 03:02:44;;;;;;;;;4.50;3.75;;;;;11.32;63.45;99247.19;4958788;28;45210;-62
2021/11/03 03:05:10;;;;;;;;;4.00;4.00;;;;;11.32;63.45;99243.66;4956299;28;45182;-63
2021/11/03 03:07:36;;;;;;;;;4.00;3.00;;;;;11.32;63.44;99252.44;4958390;28;46144;-62
2021/11/03 03:10:02;;;;;;;;;4.50;4.25;;;;;11.31;63.37;99245.47;4958332;28;45438;-62
2021/11/03 03:12:30;;;;;;;;;6.00;6.00;;;;;11.31;63.39;99245.47;4958117;28;45494;-62
2021/11/03 03:14:57;;;;;;;;;4.00;4.00;;;;;11.31;63.39;99242.00;4958138;28;45400;-62
2021/11/03 03:17:23;;;;;;;;;5.25;4.75;;;;;11.23;63.48;99242.28;4958182;28;45283;-62
2021/11/03 03:19:48;;;;;;;;;5.50;5.00;;;;;11.26;63.44;99244.78;4958256;28;45390;-63
2021/11/03 03:22:16;;;;;;;;;6.50;4.50;;;;;11.29;63.44;99255.19;4958328;28;45395;-62
2021/11/03 03:24:42;;;;;;;;;9.25;7.00;;;;;11.29;63.20;99257.81;4968427;28;45347;-62
2021/11/03 03:27:08;;;;;;;;;9.25;6.50;;;;;11.27;63.53;99256.16;4993996;27;45580;-61
2021/11/03 03:29:33;;;;;;;;;6.50;6.50;;;;;11.27;63.52;99264.03;4958189;28;45308;-62
2021/11/03 03:31:59;;;;;;;;;9.75;7.25;;;;;11.27;63.42;99267.56;4957972;28;45300;-62
2021/11/03 03:34:25;;;;;;;;;8.00;6.75;;;;;11.28;63.47;99268.41;4957993;28;45253;-62
2021/11/03 03:36:52;;;;;;;;;9.00;7.50;;;;;11.27;63.51;99274.56;4957694;28;46570;-62
2021/11/03 03:39:20;;;;;;;;;7.75;7.50;;;;;11.26;63.44;99272.84;4957967;28;45431;-62
2021/11/03 03:41:51;;;;;;;;;7.00;7.00;;;;;11.24;63.46;99279.97;4957715;28;45234;-62
2021/11/03 03:44:17;;;;;;;;;10.00;10.00;;;;;11.25;63.58;99277.25;4957982;28;45330;-62
2021/11/03 03:46:42;;;;;;;;;5.00;4.75;;;;;11.22;63.63;99285.28;4957493;28;46873;-62
2021/11/03 03:49:08;;;;;;;;;7.50;6.75;;;;;11.24;63.58;99280.81;4957937;28;45256;-62
2021/11/03 03:51:34;;;;;;;;;6.50;5.50;;;;;11.21;63.48;99283.56;4957877;28;45304;-62
2021/11/03 03:53:59;;;;;;;;;9.50;7.25;;;;;11.22;63.64;99287.91;4956449;28;45206;-61
2021/11/03 03:56:25;;;;;;;;;7.00;6.00;;;;;11.23;63.72;99289.59;4955949;28;45962;-61
2021/11/03 03:58:52;;;;;;;;;5.50;5.50;;;;;11.23;63.55;99300.13;4957730;28;45415;-61
2021/11/03 04:01:21;;;;;;;;;7.25;6.00;;;;;11.19;63.56;99296.78;4957517;28;45276;-62
2021/11/03 04:03:47;;;;;;;;;8.75;6.25;;;;;11.21;63.70;99299.34;4957519;28;45434;-62
2021/11/03 04:06:13;;;;;;;;;2.75;2.25;;;;;11.19;63.58;99302.03;4956140;28;47034;-61
2021/11/03 04:08:38;;;;;;;;;7.50;6.50;;;;;11.19;63.56;99298.53;4957668;28;45162;-62
2021/11/03 04:11:04;;;;;;;;;8.50;7.50;;;;;11.20;63.54;99305.53;4957360;28;45272;-62
2021/11/03 04:13:29;;;;;;;;;7.50;6.25;;;;;11.19;63.61;99309.94;4957419;28;45229;-62
2021/11/03 04:15:56;;;;;;;;;6.75;5.50;;;;;11.16;63.72;99303.94;4958913;28;45243;-62
2021/11/03 04:18:22;;;;;;;;;5.00;5.00;;;;;11.18;63.64;99307.34;4960456;28;45389;-62
2021/11/03 04:20:48;;;;;;;;;7.00;5.00;;;;;11.18;63.59;99312.59;4960319;28;45347;-62
2021/11/03 04:23:14;;;;;;;;;6.50;6.50;;;;;11.17;63.86;99310.88;4960453;28;45361;-61
2021/11/03 04:25:40;;;;;;;;;8.25;6.50;;;;;11.17;63.68;99317.00;5016911;28;46273;-62
2021/11/03 04:28:06;;;;;;;;;8.75;6.75;;;;;11.17;63.74;99310.88;4960229;28;45493;-62
2021/11/03 04:30:32;;;;;;;;;6.25;5.75;;;;;11.16;63.61;99319.72;4960298;28;45455;-61
2021/11/03 04:32:58;;;;;;;;;6.75;5.75;;;;;11.16;63.80;99327.59;4960429;28;45236;-62
2021/11/03 04:35:23;;;;;;;;;5.00;4.50;;;;;11.15;63.67;99324.09;4960111;28;46113;-62
2021/11/03 04:37:49;;;;;;;;;7.00;7.00;;;;;11.15;63.88;99329.34;4958925;28;45427;-61
2021/11/03 04:40:17;;;;;;;;;7.50;6.00;;;;;11.16;63.60;99324.97;4960114;28;45348;-62
2021/11/03 04:42:43;;;;;;;;;8.00;7.00;;;;;11.15;63.71;99328.50;4960200;28;45511;-61
2021/11/03 04:45:09;;;;;;;;;12.00;9.25;;;;;11.15;63.78;99331.97;4959804;28;45331;-62
2021/11/03 04:47:35;;;;;;;;;6.25;5.00;;;;;11.14;63.69;99329.41;4960031;28;45415;-62
2021/11/03 04:50:01;;;;;;;;;6.00;6.00;;;;;11.14;63.76;99332.06;4960119;28;45317;-62
2021/11/03 04:52:27;;;;;;;;;9.00;5.25;;;;;11.13;63.78;99332.97;4960158;28;45447;-62
2021/11/03 04:54:53;;;;;;;;;7.25;7.25;;;;;11.11;63.78;99337.44;4959697;28;46231;-62
2021/11/03 04:57:19;;;;;;;;;8.50;7.50;;;;;11.10;63.75;99331.31;4959670;28;45167;-62
2021/11/03 04:59:46;;;;;;;;;9.50;8.75;;;;;11.09;63.93;99326.13;4959863;28;45170;-62
2021/11/03 05:02:12;;;;;;;;;9.25;8.00;;;;;11.06;63.72;99330.56;4959907;28;45431;-61
2021/11/03 05:04:38;;;;;;;;;9.25;7.25;;;;;11.05;63.84;99334.09;4959711;28;46044;-62
2021/11/03 05:07:05;;;;;;;;;9.00;9.00;;;;;11.01;63.86;99327.25;4958759;28;45315;-61
2021/11/03 05:09:31;;;;;;;;;13.25;13.25;;;;;11.08;63.84;99337.53;4960018;28;45307;-62
2021/11/03 05:11:56;;;;;;;;;7.00;7.00;;;;;11.06;63.81;99338.44;4959757;28;45257;-64
2021/11/03 05:14:21;;;;;;;;;14.50;11.50;;;;;11.05;63.81;99342.00;4959760;28;45902;-62
2021/11/03 05:16:47;;;;;;;;;11.25;11.25;;;;;11.04;63.74;99342.94;4959674;28;45205;-62
2021/11/03 05:19:20;;;;;;;;;12.00;12.00;;;;;11.02;63.83;99344.75;4959775;28;45228;-62
2021/11/03 05:21:48;;;;;;;;;11.50;11.25;;;;;11.03;63.68;99345.59;4958446;28;45400;-62
2021/11/03 05:24:14;;;;;;;;;14.00;13.50;;;;;11.01;63.36;99344.81;4959662;28;45343;-62
2021/11/03 05:26:39;;;;;;;;;15.25;14.00;;;;;11.00;63.72;99343.09;5010067;28;45183;-62
2021/11/03 05:29:06;;;;;;;;;15.00;14.00;;;;;10.99;63.87;99344.88;4959487;28;45227;-62
2021/11/03 05:31:31;;;;;;;;;15.00;13.75;;;;;10.99;63.70;99344.88;4958478;28;45533;-62
2021/11/03 05:33:56;;;;;;;;;18.50;16.00;;;;;10.95;63.81;99338.00;4959192;28;46417;-62
2021/11/03 05:36:25;;;;;;;;;16.75;16.75;;;;;10.97;63.81;99346.69;4959485;28;45265;-62
2021/11/03 05:38:51;;;;;;;;;21.25;17.75;;;;;10.97;63.85;99341.44;4959484;28;45316;-62
2021/11/03 05:41:17;;;;;;;;;20.50;18.00;;;;;10.96;63.65;99344.13;4959164;28;45232;-61
2021/11/03 05:43:43;;;;;;;;;18.00;18.00;;;;;10.60;63.87;99290.25;4959024;28;47054;-61
2021/11/03 05:46:14;;;;;;;;;14.25;14.25;;;;;10.95;63.81;99352.94;4974269;28;46250;-61
2021/11/03 05:48:42;;;;;;;;;22.25;21.25;;;;;10.93;63.87;99360.88;4961863;28;45434;-61
2021/11/03 05:51:09;;;;;;;;;19.50;18.75;;;;;10.89;63.81;99343.50;4958043;28;45591;-61
2021/11/03 05:53:37;;;;;;;;;18.75;16.50;;;;;10.91;63.97;99361.84;4958895;28;46049;-61
2021/11/03 05:56:04;;;;;;;;;21.50;19.75;;;;;10.88;63.86;99354.94;4958865;28;45341;-61
2021/11/03 05:58:31;;;;;;;;;24.25;19.25;;;;;10.84;63.84;99364.72;4972215;28;45438;-61
2021/11/03 06:00:57;;;;;;;;;22.75;18.50;;;;;10.87;64.23;99367.22;4958935;28;45637;-61
2021/11/03 06:03:22;;;;;;;;;20.25;18.75;;;;;10.85;63.91;99363.78;4958895;28;45213;-61
2021/11/03 06:05:47;;;;;;;;;20.50;19.00;;;;;10.85;63.78;99362.94;4959326;28;45185;-61
2021/11/03 06:08:13;;;;;;;;;27.00;22.50;;;;;10.84;63.88;99372.59;4959115;28;45510;-61
2021/11/03 06:10:40;;;;;;;;;24.25;22.25;;;;;10.82;63.98;99366.53;4959086;28;45229;-62
2021/11/03 06:13:07;;;;;;;;;25.50;21.75;;;;;10.83;63.83;99376.13;4958640;28;46320;-61
2021/11/03 06:15:33;;;;;;;;;21.75;19.25;;;;;10.82;63.91;99378.81;4959194;28;45367;-61
2021/11/03 06:17:59;;;;;;;;;22.00;20.00;;;;;10.78;63.83;99367.56;4958821;28;45277;-61
2021/11/03 06:20:25;;;;;;;;;22.00;19.00;;;;;10.79;63.91;99371.91;4959004;28;45589;-61
2021/11/03 06:22:51;;;;;;;;;22.00;18.50;;;;;10.79;64.06;99374.53;4958571;28;45272;-61
2021/11/03 06:25:17;;;;;;;;;18.00;17.50;;;;;10.77;63.89;99375.47;4998010;28;45397;-61
2021/11/03 06:27:44;;;;;;;;;25.25;21.50;;;;;10.78;63.84;99372.81;4969353;27;45153;-61
2021/11/03 06:30:15;;;;;;;;;25.50;20.25;;;;;10.77;64.02;99376.34;4959039;28;45316;-61
2021/11/03 06:32:41;;;;;;;;;27.75;23.75;;;;;10.79;63.89;99384.19;4958476;28;45265;-61
2021/11/03 06:35:07;;;;;;;;;25.50;25.50;;;;;10.78;63.94;99378.06;4958740;28;45438;-61
2021/11/03 06:37:33;;;;;;;;;25.75;21.75;;;;;10.78;64.12;99383.34;4958724;28;45286;-60
2021/11/03 06:39:58;;;;;;;;;23.75;22.00;;;;;10.75;64.04;99387.84;4957457;28;45173;-61
2021/11/03 06:42:24;;;;;;;;;28.00;22.50;;;;;10.78;64.01;99399.09;4958296;28;45968;-62
2021/11/03 06:44:50;;;;;;;;;22.75;21.00;;;;;10.79;64.06;99399.94;4958775;28;45162;-61
2021/11/03 06:47:17;;;;;;;;;24.25;20.75;;;;;10.79;64.17;99398.19;4958636;28;45313;-61
2021/11/03 06:49:43;;;;;;;;;24.75;23.00;;;;;10.81;63.99;99411.28;4958533;28;45416;-62
2021/11/03 06:52:08;;;;;;;;;24.25;21.00;;;;;10.81;64.02;99411.28;4958158;28;45265;-61
2021/11/03 06:54:33;;;;;;;;;17.75;17.25;;;;;10.80;64.19;99410.38;4958765;28;45373;-61
2021/11/03 06:57:02;;;;;;;;;23.50;20.25;;;;;10.81;64.07;99421.78;4971808;28;45335;-61
2021/11/03 06:59:28;;;;;;;;;21.75;21.75;;;;;10.81;64.25;99420.00;4957076;28;45489;-61
2021/11/03 07:01:53;;;;;;;;;21.50;19.00;;;;;10.80;64.03;99422.69;4972219;28;47165;-60
2021/11/03 07:04:18;;;;;;;;;21.50;18.00;;;;;10.81;64.17;99424.41;4958475;28;45252;-63
2021/11/03 07:06:44;;;;;;;;;28.75;22.50;;;;;10.80;64.03;99423.53;4972654;28;45185;-60
2021/11/03 07:09:09;;;;;;;;;25.00;22.25;;;;;10.79;64.17;99434.97;4958367;28;45154;-60
2021/11/03 07:11:35;;;;;;;;;29.50;27.25;;;;;10.79;64.20;99428.84;4957955;28;47178;-62
2021/11/03 07:14:00;;;;;;;;;38.25;34.00;;;;;10.83;64.19;99439.22;4958167;28;45249;-64
2021/11/03 07:16:26;;;;;;;;;39.25;31.75;;;;;10.82;64.13;99449.78;4958237;28;45525;-63
2021/11/03 07:18:53;;;;;;;;;39.50;32.50;;;;;10.85;64.39;99452.28;4958394;28;45421;-63
2021/11/03 07:21:18;;;;;;;;;26.00;23.25;;;;;10.82;64.22;99450.63;4957950;28;45360;-63
2021/11/03 07:23:44;;;;;;;;;26.75;24.50;;;;;10.85;64.33;99457.53;4957902;28;45321;-63
2021/11/03 07:26:11;;;;;;;;;28.00;26.00;;;;;10.84;64.29;99467.22;5011809;28;45312;-63
2021/11/03 07:28:38;;;;;;;;;30.75;26.75;;;;;10.84;64.27;99467.22;4956682;28;45471;-61
2021/11/03 07:31:05;;;;;;;;;27.00;26.75;;;;;10.85;64.32;99468.91;4957573;28;45578;-64
2021/11/03 07:33:30;;;;;;;;;24.75;23.25;;;;;10.83;64.39;99469.88;4949052;28;45781;-63
2021/11/03 07:35:56;;;;;;;;;22.75;22.25;;;;;10.84;64.25;99469.84;4957761;28;45292;-68
2021/11/03 07:38:21;;;;;;;;;27.00;27.00;;;;;10.81;64.47;99472.56;4964997;28;45484;-65
2021/11/03 07:40:51;;;;;;;;;28.75;25.50;;;;;10.82;64.25;99476.91;4956173;28;47117;-65
2021/11/03 07:43:19;;;;;;;;;29.00;26.75;;;;;10.85;64.42;99489.91;4956367;28;45457;-70
2021/11/03 07:45:45;;;;;;;;;24.00;23.25;;;;;10.86;64.44;99503.94;4957310;28;45231;-63
2021/11/03 07:48:12;;;;;;;;;26.25;23.00;;;;;10.87;64.33;99495.16;4957819;28;45347;-63
2021/11/03 07:50:47;;;;;;;;;26.00;24.00;;;;;10.87;64.33;99495.16;4957500;28;47205;-64
2021/11/03 07:53:14;;;;;;;;;27.75;26.50;;;;;10.88;64.23;99510.84;4958872;28;45510;-64
2021/11/03 07:55:43;;;;;;;;;79.00;66.25;;;;;10.87;64.43;99513.53;4960069;28;45410;-64
2021/11/03 07:58:13;;;;;;;;;32.50;30.50;;;;;10.86;64.40;99512.66;4960371;28;45188;-64
2021/11/03 08:00:38;;;;;;;;;31.25;23.75;;;;;10.87;64.36;99521.44;4959018;28;47266;-62
2021/11/03 08:03:03;;;;;;;;;30.00;27.75;;;;;10.87;64.14;99535.41;4960390;28;45403;-64
2021/11/03 08:05:30;;;;;;;;;27.00;27.00;;;;;10.88;64.36;99541.56;4959367;28;45304;-64
2021/11/03 08:07:58;;;;;;;;;28.75;26.50;;;;;10.88;64.40;99545.03;4960393;28;45450;-62
2021/11/03 08:10:24;;;;;;;;;32.25;29.00;;;;;10.88;64.30;99544.19;4960088;28;46499;-63
2021/11/03 08:12:53;;;;;;;;;23.50;21.00;;;;;10.86;64.19;99543.34;4959968;28;45333;-63
2021/11/03 08:15:18;;;;;;;;;25.75;23.00;;;;;10.80;64.29;99535.69;4960286;28;45399;-63
2021/11/03 08:17:44;;;;;;;;;27.25;22.25;;;;;10.83;64.36;99538.19;4960224;28;45359;-64
2021/11/03 08:20:15;;;;;;;;;26.75;23.75;;;;;10.84;64.04;99543.41;4958953;28;47317;-64
2021/11/03 08:22:41;;;;;;;;;26.50;24.00;;;;;10.82;64.33;99547.00;4960440;28;45190;-63
2021/11/03 08:25:07;;;;;;;;;26.75;25.00;;;;;10.86;64.17;99559.13;4989617;28;45350;-63
2021/11/03 08:27:32;;;;;;;;;27.00;24.75;;;;;10.84;64.16;99547.81;4980125;27;45461;-63
2021/11/03 08:29:58;;;;;;;;;28.25;25.50;;;;;10.87;63.95;99566.09;4960011;28;45328;-63
2021/11/03 08:32:29;;;;;;;;;27.50;25.00;;;;;10.89;64.33;99572.16;4958724;28;45309;-63
2021/11/03 08:34:55;;;;;;;;;32.25;29.00;;;;;10.91;64.22;99569.50;4960304;28;45373;-64
2021/11/03 08:37:28;;;;;;;;;26.75;25.25;;;;;10.89;64.28;99564.28;4959903;28;45180;-63
2021/11/03 08:39:54;;;;;;;;;27.75;23.75;;;;;10.92;64.18;99573.81;4959949;28;45967;-64
2021/11/03 08:42:22;;;;;;;;;29.50;27.75;;;;;10.97;64.48;99570.13;4958482;28;45440;-63
2021/11/03 08:44:49;;;;;;;;;30.75;24.75;;;;;10.99;64.21;99570.94;4958735;28;45376;-63
2021/11/03 08:47:15;;;;;;;;;26.00;24.50;;;;;11.01;64.36;99571.72;4959824;28;45455;-63
2021/11/03 08:49:40;;;;;;;;;30.25;26.75;;;;;11.08;64.41;99579.41;4959664;28;46154;-63
2021/11/03 08:52:07;;;;;;;;;27.25;24.25;;;;;11.03;64.41;99559.41;4959712;28;45324;-63
2021/11/03 08:54:41;;;;;;;;;25.25;25.25;;;;;11.17;64.58;99573.81;4960210;28;45273;-63
2021/11/03 08:57:08;;;;;;;;;24.25;23.00;;;;;11.13;64.45;99561.69;4966274;28;45288;-63
2021/11/03 08:59:34;;;;;;;;;22.75;19.50;;;;;11.23;64.54;99576.22;4979077;28;45189;-63
2021/11/03 09:02:00;;;;;;;;;26.25;23.50;;;;;11.27;64.67;99580.50;4978263;28;45182;-63
2021/11/03 09:04:25;;;;;;;;;27.00;22.00;;;;;11.31;64.65;99579.47;4978106;28;45280;-63
2021/11/03 09:06:50;;;;;;;;;26.25;25.75;;;;;11.36;64.44;99590.69;4979284;28;45263;-63
2021/11/03 09:09:16;;;;;;;;;32.00;28.25;;;;;11.42;64.51;99584.34;4979118;28;46120;-63
2021/11/03 09:11:41;;;;;;;;;32.25;26.75;;;;;11.47;64.53;99587.66;4978895;28;45425;-63
2021/11/03 09:14:07;;;;;;;;;26.75;25.25;;;;;11.60;64.61;99595.13;4979146;28;45399;-61
2021/11/03 09:16:33;;;;;;;;;28.00;27.00;;;;;11.69;64.71;99592.97;4979183;28;45492;-62
2021/11/03 09:18:59;;;;;;;;;23.75;22.25;;;;;11.79;64.73;99590.03;4977642;28;47351;-63
2021/11/03 09:21:25;;;;;;;;;27.75;26.00;;;;;11.90;64.96;99592.25;4979050;28;45362;-63
2021/11/03 09:23:51;;;;;;;;;23.75;23.75;;;;;12.01;64.69;99600.63;4979280;28;45462;-63
2021/11/03 09:26:19;;;;;;;;;23.00;21.75;;;;;12.15;64.92;99611.50;5014103;28;45584;-63
2021/11/03 09:28:45;;;;;;;;;39.25;34.00;;;;;12.29;64.76;99610.97;4959356;28;45317;-63
2021/11/03 09:31:11;;;;;;;;;35.50;30.00;;;;;12.43;64.91;99606.94;4959481;28;45364;-63
2021/11/03 09:33:38;;;;;;;;;26.00;23.50;;;;;12.57;65.16;99611.66;4959747;28;45349;-63
2021/11/03 09:36:12;;;;;;;;;19.25;16.75;;;;;12.75;65.18;99617.94;4959270;28;45356;-61
2021/11/03 09:38:37;;;;;;;;;25.75;25.25;;;;;12.89;65.29;99618.19;4959231;28;45441;-63
2021/11/03 09:41:08;;;;;;;;;28.00;24.50;;;;;13.05;65.37;99628.13;4959244;28;45378;-63
2021/11/03 09:43:47;;;;;;;;;25.75;21.50;;;;;13.20;65.39;99634.53;4959242;28;45539;-63
2021/11/03 09:46:17;;;;;;;;;19.50;19.25;;;;;13.31;65.13;99634.94;4959252;28;45482;-63
2021/11/03 09:48:45;;;;;;;;;20.00;18.00;;;;;13.37;65.42;99642.63;4958968;28;46163;-64
2021/11/03 09:51:22;;;;;;;;;21.00;19.00;;;;;13.48;65.10;99645.66;4959255;28;45174;-64
2021/11/03 09:54:12;;;;;;;;;20.00;18.50;;;;;13.53;64.67;99640.16;4959124;28;45320;-63
2021/11/03 09:56:45;;;;;;;;;24.00;20.75;;;;;13.58;64.44;99646.09;4958586;28;45201;-63
2021/11/03 09:59:23;;;;;;;;;21.00;20.50;;;;;13.59;64.55;99652.25;4958789;28;46130;-62
2021/11/03 10:02:03;;;;;;;;;20.75;20.25;;;;;13.59;64.43;99645.16;4958975;28;45288;-63
2021/11/03 10:04:31;;;;;;;;;25.00;20.00;;;;;13.62;64.21;99649.44;4959056;28;45376;-64
2021/11/03 10:07:08;;;;;;;;;21.00;20.75;;;;;13.64;64.40;99648.44;4957910;28;45501;-63
2021/11/03 10:09:37;;;;;;;;;22.00;21.00;;;;;13.65;64.28;99650.16;4958900;28;46673;-64
2021/11/03 10:12:12;;;;;;;;;25.75;23.00;;;;;13.74;63.96;99653.34;4958644;28;45459;-64
2021/11/03 10:14:37;;;;;;;;;24.25;23.75;;;;;13.81;64.44;99650.34;4958763;28;45377;-63
2021/11/03 10:17:32;;;;;;;;;22.75;20.25;;;;;13.91;64.00;99650.81;4958890;28;45299;-64
2021/11/03 10:19:58;;;;;;;;;23.25;21.00;;;;;14.01;63.76;99653.00;4950067;28;46233;-63
2021/11/03 10:22:39;;;;;;;;;22.00;19.25;;;;;14.12;64.29;99653.38;4958628;28;45316;-63
2021/11/03 10:25:11;;;;;;;;;18.00;17.75;;;;;14.24;64.11;99659.91;4987455;28;45293;-63
2021/11/03 10:27:52;;;;;;;;;22.75;20.00;;;;;14.40;64.40;99663.53;4971206;28;45256;-63
2021/11/03 10:30:30;;;;;;;;;20.00;20.00;;;;;14.54;63.81;99654.94;4958830;28;45454;-63
2021/11/03 10:32:57;;;;;;;;;20.00;18.75;;;;;14.61;63.93;99644.91;4966473;28;45397;-63
2021/11/03 10:35:36;;;;;;;;;20.00;17.00;;;;;14.85;64.05;99658.75;4978078;28;45296;-63
2021/11/03 10:38:07;;;;;;;;;16.50;15.75;;;;;14.98;63.99;99651.09;4978128;28;45469;-63
2021/11/03 10:41:03;;;;;;;;;16.00;14.25;;;;;15.15;63.94;99666.09;4977801;28;46194;-63
2021/11/03 10:43:42;;;;;;;;;11.75;11.75;;;;;15.27;63.40;99657.56;4977876;28;45232;-63
2021/11/03 10:46:22;;;;;;;;;10.00;9.75;;;;;15.43;63.30;99654.09;4978193;28;45376;-63
2021/11/03 10:49:00;;;;;;;;;13.00;11.50;;;;;15.57;63.56;99656.91;4973260;28;45247;-63
2021/11/03 10:51:39;;;;;;;;;10.25;10.25;;;;;15.73;63.07;99656.94;4958508;28;45263;-63
2021/11/03 10:54:14;;;;;;;;;13.75;12.50;;;;;15.91;63.36;99657.81;4966059;28;45344;-63
2021/11/03 10:56:50;;;;;;;;;12.75;11.75;;;;;16.11;63.18;99661.16;4977599;28;45342;-63
2021/11/03 10:59:18;;;;;;;;;14.00;12.25;;;;;16.28;63.07;99662.91;4977639;28;45390;-63
2021/11/03 11:01:46;;;;;;;;;12.25;11.25;;;;;16.45;62.86;99671.72;4977631;28;45335;-63
2021/11/03 11:04:22;;;;;;;;;16.00;13.75;;;;;16.58;62.55;99667.44;4977764;28;45305;-63
2021/11/03 11:07:17;;;;;;;;;19.25;15.25;;;;;16.68;62.62;99665.97;4977734;28;45466;-64
2021/11/03 11:09:48;;;;;;;;;14.75;13.75;;;;;16.73;62.34;99669.22;4973405;28;46455;-63
2021/11/03 11:12:33;;;;;;;;;16.75;16.00;;;;;16.77;62.18;99669.91;4977525;28;46590;-63
2021/11/03 11:15:05;;;;;;;;;13.50;11.00;;;;;16.80;62.24;99685.63;4977624;28;45225;-63
2021/11/03 11:17:48;;;;;;;;;13.50;12.00;;;;;16.83;62.11;99677.50;4976184;28;45341;-63
2021/11/03 11:20:39;;;;;;;;;13.25;12.25;;;;;16.88;61.86;99680.75;4977370;28;45369;-63
2021/11/03 11:23:20;;;;;;;;;13.25;12.25;;;;;16.90;61.66;99665.59;4976175;28;47314;-63
2021/11/03 11:26:04;;;;;;;;;13.00;11.50;;;;;16.97;61.57;99682.06;5016198;28;45260;-62
2021/11/03 11:28:47;;;;;;;;;14.75;13.00;;;;;17.03;61.45;99683.47;4958034;28;45411;-63